createdAt,value
2023-02-22T00:01:50.572Z,5.50
2023-02-22T00:04:20.994Z,5.40
2023-02-22T00:06:48.381Z,5.40
2023-02-22T00:09:20.313Z,5.40
2023-02-22T00:11:47.754Z,5.30
2023-02-22T00:14:14.274Z,5.40
2023-02-22T00:16:41.033Z,5.40
2023-02-22T00:19:07.640Z,5.40
2023-02-22T00:21:34.220Z,5.40
2023-02-22T00:24:07.087Z,5.40
2023-02-22T00:26:33.887Z,5.40
2023-02-22T00:29:00.522Z,5.40
2023-02-22T00:31:27.098Z,5.40
2023-02-22T00:33:53.710Z,5.40
2023-02-22T00:36:20.368Z,5.40
2023-02-22T00:38:46.858Z,5.50
2023-02-22T00:41:13.398Z,5.50
2023-02-22T00:43:39.948Z,5.60
2023-02-22T00:46:06.652Z,5.50
2023-02-22T00:48:33.182Z,5.50
2023-02-22T00:50:59.829Z,5.50
2023-02-22T00:53:26.464Z,5.50
2023-02-22T00:55:53.978Z,5.50
2023-02-22T00:58:21.127Z,5.60
2023-02-22T01:00:47.718Z,5.60
2023-02-22T01:03:15.200Z,5.60
2023-02-22T01:05:42.093Z,5.60
2023-02-22T01:08:09.737Z,5.60
2023-02-22T01:10:36.888Z,5.60
2023-02-22T01:13:08.620Z,5.60
2023-02-22T01:15:36.484Z,5.60
2023-02-22T01:18:03.341Z,5.70
2023-02-22T01:20:29.842Z,5.70
2023-02-22T01:22:57.317Z,5.60
2023-02-22T01:25:25.488Z,5.60
2023-02-22T01:27:53.199Z,5.60
2023-02-22T01:30:24.023Z,5.60
2023-02-22T01:32:53.540Z,5.60
2023-02-22T01:35:22.122Z,5.70
2023-02-22T01:37:48.703Z,5.70
2023-02-22T01:40:20.237Z,5.70
2023-02-22T01:42:55.295Z,5.70
2023-02-22T01:45:32.455Z,5.70
2023-02-22T01:48:08.629Z,5.70
2023-02-22T01:50:37.161Z,5.70
2023-02-22T01:53:04.563Z,5.60
2023-02-22T01:55:32.014Z,5.60
2023-02-22T01:57:58.666Z,5.60
2023-02-22T02:00:27.604Z,5.50
2023-02-22T02:03:02.622Z,5.50
2023-02-22T02:05:31.371Z,5.40
2023-02-22T02:07:58.574Z,5.40
2023-02-22T02:10:26.704Z,5.40
2023-02-22T02:12:53.387Z,5.30
2023-02-22T02:15:33.245Z,5.20
2023-02-22T02:18:04.913Z,5.20
2023-02-22T02:20:31.424Z,5.20
2023-02-22T02:23:13.403Z,5.20
2023-02-22T02:25:58.535Z,5.20
2023-02-22T02:28:37.319Z,5.10
2023-02-22T02:31:09.927Z,5.10
2023-02-22T02:33:44.957Z,5.10
2023-02-22T02:36:31.509Z,5.00
2023-02-22T02:39:08.092Z,5.00
2023-02-22T02:41:40.866Z,5.00
2023-02-22T02:44:13.159Z,4.90
2023-02-22T02:46:45.630Z,4.90
2023-02-22T02:49:14.891Z,4.80
2023-02-22T02:51:46.482Z,4.70
2023-02-22T02:54:14.268Z,4.70
2023-02-22T02:56:41.211Z,4.70
2023-02-22T02:59:28.040Z,4.60
2023-02-22T03:02:04.591Z,4.60
2023-02-22T03:04:49.879Z,4.50
2023-02-22T03:07:21.393Z,4.60
2023-02-22T03:09:52.979Z,4.50
2023-02-22T03:12:29.650Z,4.50
2023-02-22T03:15:05.703Z,4.60
2023-02-22T03:17:41.365Z,4.60
2023-02-22T03:20:14.151Z,4.70
2023-02-22T03:22:48.045Z,4.70
2023-02-22T03:25:17.526Z,4.60
2023-02-22T03:27:47.541Z,4.60
2023-02-22T03:30:17.895Z,4.60
2023-02-22T03:32:47.585Z,4.60
2023-02-22T03:35:21.715Z,4.50
2023-02-22T03:37:50.127Z,4.40
2023-02-22T03:40:26.006Z,4.40
2023-02-22T03:42:56.335Z,4.40
2023-02-22T03:45:24.114Z,4.40
2023-02-22T03:47:53.302Z,4.30
2023-02-22T03:50:21.335Z,4.30
2023-02-22T03:52:48.384Z,4.20
2023-02-22T03:55:17.656Z,4.20
2023-02-22T03:57:49.430Z,4.20
2023-02-22T04:00:18.282Z,4.20
2023-02-22T04:02:44.985Z,4.20
2023-02-22T04:05:11.679Z,4.20
2023-02-22T04:07:38.291Z,4.20
2023-02-22T04:10:08.558Z,4.20
2023-02-22T04:12:35.917Z,4.10
2023-02-22T04:15:03.361Z,4.10
2023-02-22T04:17:29.979Z,4.10
2023-02-22T04:19:56.586Z,4.10
2023-02-22T04:22:23.166Z,4.10
2023-02-22T04:24:49.834Z,4.10
2023-02-22T04:27:16.539Z,4.20
2023-02-22T04:29:43.211Z,4.20
2023-02-22T04:32:09.862Z,4.20
2023-02-22T04:34:36.512Z,4.20
2023-02-22T04:37:03.591Z,4.20
2023-02-22T04:39:30.385Z,4.20
2023-02-22T04:41:56.995Z,4.20
2023-02-22T04:44:23.665Z,4.30
2023-02-22T04:46:50.272Z,4.30
2023-02-22T04:49:16.912Z,4.30
2023-02-22T04:51:43.550Z,4.30
2023-02-22T04:54:10.489Z,4.20
2023-02-22T04:56:37.074Z,4.20
2023-02-22T04:59:03.650Z,4.20
2023-02-22T05:01:33.621Z,4.20
2023-02-22T05:04:01.742Z,4.10
2023-02-22T05:06:28.261Z,4.10
2023-02-22T05:08:54.831Z,4.00
2023-02-22T05:11:22.220Z,3.90
2023-02-22T05:13:48.995Z,3.90
2023-02-22T05:16:15.862Z,3.90
2023-02-22T05:18:42.793Z,4.00
2023-02-22T05:21:09.930Z,4.00
2023-02-22T05:23:36.638Z,4.00
2023-02-22T05:26:03.234Z,3.90
2023-02-22T05:28:29.915Z,3.90
2023-02-22T05:30:56.541Z,3.90
2023-02-22T05:33:23.162Z,3.90
2023-02-22T05:35:50.402Z,4.00
2023-02-22T05:38:17.106Z,3.90
2023-02-22T05:40:43.960Z,3.90
2023-02-22T05:43:10.832Z,3.90
2023-02-22T05:45:37.472Z,3.90
2023-02-22T05:48:04.919Z,4.00
2023-02-22T05:50:33.014Z,4.00
2023-02-22T05:52:59.745Z,3.90
2023-02-22T05:55:26.382Z,3.90
2023-02-22T05:57:55.914Z,3.90
2023-02-22T06:00:27.057Z,3.90
2023-02-22T06:02:54.500Z,3.90
2023-02-22T06:05:21.179Z,3.90
2023-02-22T06:07:51.014Z,3.80
2023-02-22T06:10:18.006Z,3.80
2023-02-22T06:12:44.580Z,3.80
2023-02-22T06:15:11.228Z,3.80
2023-02-22T06:17:39.524Z,3.80
2023-02-22T06:20:06.475Z,3.80
2023-02-22T06:22:36.019Z,3.80
2023-02-22T06:25:06.525Z,3.80
2023-02-22T06:27:33.910Z,3.80
2023-02-22T06:30:01.083Z,3.80
2023-02-22T06:32:27.952Z,3.80
2023-02-22T06:34:54.608Z,3.80
2023-02-22T06:37:21.331Z,3.80
2023-02-22T06:39:48.065Z,3.80
2023-02-22T06:42:15.025Z,3.80
2023-02-22T06:44:42.004Z,3.80
2023-02-22T06:47:11.327Z,3.80
2023-02-22T06:49:41.038Z,3.80
2023-02-22T06:52:11.677Z,3.80
2023-02-22T06:54:43.443Z,3.90
2023-02-22T06:57:10.280Z,4.00
2023-02-22T06:59:40.020Z,4.00
2023-02-22T07:02:07.135Z,4.00
2023-02-22T07:04:35.486Z,4.00
2023-02-22T07:07:03.609Z,4.00
2023-02-22T07:09:30.504Z,4.00
2023-02-22T07:11:57.275Z,4.00
2023-02-22T07:14:23.866Z,4.00
2023-02-22T07:16:50.514Z,3.90
2023-02-22T07:19:17.113Z,4.00
2023-02-22T07:21:43.716Z,4.10
2023-02-22T07:24:10.362Z,4.10
2023-02-22T07:26:40.816Z,4.20
2023-02-22T07:29:07.462Z,4.20
2023-02-22T07:31:40.308Z,4.30
2023-02-22T07:34:07.055Z,4.30
2023-02-22T07:36:33.734Z,4.40
2023-02-22T07:39:00.463Z,4.40
2023-02-22T07:41:27.138Z,4.50
2023-02-22T07:43:53.742Z,4.60
2023-02-22T07:46:20.445Z,4.60
2023-02-22T07:48:47.133Z,4.70
2023-02-22T07:51:15.184Z,4.80
2023-02-22T07:53:43.031Z,4.80
2023-02-22T07:56:10.270Z,4.90
2023-02-22T07:58:37.081Z,4.90
2023-02-22T08:01:03.749Z,4.90
2023-02-22T08:03:32.004Z,5.00
2023-02-22T08:06:00.537Z,5.00
2023-02-22T08:08:30.052Z,5.00
2023-02-22T08:10:57.067Z,5.10
2023-02-22T08:13:23.806Z,5.20
2023-02-22T08:15:51.943Z,5.20
2023-02-22T08:18:19.219Z,5.30
2023-02-22T08:20:46.788Z,5.40
2023-02-22T08:23:14.461Z,5.40
2023-02-22T08:25:41.602Z,5.50
2023-02-22T08:28:10.144Z,5.60
2023-02-22T08:30:40.294Z,5.70
2023-02-22T08:33:07.441Z,5.80
2023-02-22T08:35:34.388Z,5.90
2023-02-22T08:38:04.842Z,6.00
2023-02-22T08:40:33.946Z,6.10
2023-02-22T08:43:01.756Z,6.20
2023-02-22T08:45:28.865Z,6.30
2023-02-22T08:47:55.957Z,6.40
2023-02-22T08:50:24.629Z,6.50
2023-02-22T08:52:52.328Z,6.70
2023-02-22T08:55:20.191Z,7.00
2023-02-22T08:57:46.988Z,7.00
2023-02-22T09:00:14.152Z,7.20
2023-02-22T09:02:41.589Z,7.30
2023-02-22T09:05:08.347Z,7.60
2023-02-22T09:07:35.325Z,8.00
2023-02-22T09:10:02.007Z,8.30
2023-02-22T09:12:28.931Z,8.70
2023-02-22T09:14:55.794Z,9.10
2023-02-22T09:17:22.561Z,9.50
2023-02-22T09:19:49.253Z,9.60
2023-02-22T09:22:16.182Z,10.10
2023-02-22T09:24:43.398Z,10.40
2023-02-22T09:27:12.084Z,10.70
2023-02-22T09:29:42.349Z,11.10
2023-02-22T09:32:09.201Z,11.60
2023-02-22T09:34:35.923Z,12.00
2023-02-22T09:37:04.661Z,12.60
2023-02-22T09:39:35.438Z,12.80
2023-02-22T09:42:06.656Z,12.40
2023-02-22T09:45:12.892Z,11.80
2023-02-22T09:47:46.589Z,11.40
2023-02-22T09:50:15.877Z,10.90
2023-02-22T09:52:42.435Z,10.90
2023-02-22T09:55:30.916Z,11.20
2023-02-22T09:57:59.692Z,11.80
2023-02-22T10:00:34.497Z,12.30
2023-02-22T10:03:21.389Z,12.90
2023-02-22T10:05:52.937Z,13.60
2023-02-22T10:08:20.072Z,13.70
2023-02-22T10:10:52.547Z,13.60
2023-02-22T10:13:32.851Z,13.90
2023-02-22T10:16:02.917Z,14.60
2023-02-22T10:18:39.500Z,15.20
2023-02-22T10:21:14.289Z,15.50
2023-02-22T10:23:43.767Z,14.70
2023-02-22T10:26:14.972Z,14.40
2023-02-22T10:28:46.959Z,14.00
2023-02-22T10:31:19.654Z,13.90
2023-02-22T10:33:47.333Z,14.00
2023-02-22T10:36:21.041Z,13.80
2023-02-22T10:38:59.517Z,14.10
2023-02-22T10:41:33.155Z,13.90
2023-02-22T10:44:01.483Z,14.10
2023-02-22T10:46:29.533Z,14.20
2023-02-22T10:48:57.404Z,14.00
2023-02-22T10:51:26.959Z,13.80
2023-02-22T10:53:58.759Z,13.50
2023-02-22T10:56:27.607Z,13.50
2023-02-22T10:59:02.576Z,13.60
2023-02-22T11:01:33.381Z,13.10
2023-02-22T11:04:13.944Z,13.50
2023-02-22T11:06:42.541Z,13.90
2023-02-22T11:09:11.629Z,14.10
2023-02-22T11:11:39.942Z,14.50
2023-02-22T11:14:11.085Z,14.30
2023-02-22T11:16:39.920Z,14.20
2023-02-22T11:19:20.486Z,14.40
2023-02-22T11:21:51.470Z,14.60
2023-02-22T11:24:19.805Z,14.90
2023-02-22T11:27:05.984Z,15.20
2023-02-22T11:29:34.374Z,15.40
2023-02-22T11:32:02.313Z,15.60
2023-02-22T11:34:36.497Z,15.20
2023-02-22T11:37:17.198Z,14.80
2023-02-22T11:39:44.720Z,14.50
2023-02-22T11:42:23.224Z,14.50
2023-02-22T11:45:07.438Z,14.60
2023-02-22T11:47:35.208Z,14.80
2023-02-22T11:50:02.395Z,15.00
2023-02-22T11:52:39.444Z,15.10
2023-02-22T11:55:09.899Z,14.90
2023-02-22T11:57:46.368Z,14.70
2023-02-22T12:00:16.152Z,14.90
2023-02-22T12:02:56.980Z,14.90
2023-02-22T12:05:26.280Z,15.10
2023-02-22T12:08:05.278Z,15.20
2023-02-22T12:10:40.403Z,15.30
2023-02-22T12:13:19.520Z,15.30
2023-02-22T12:15:46.224Z,15.10
2023-02-22T12:18:16.063Z,15.20
2023-02-22T12:20:47.884Z,15.80
2023-02-22T12:23:20.712Z,16.20
2023-02-22T12:25:58.360Z,16.40
2023-02-22T12:28:32.334Z,16.50
2023-02-22T12:31:01.885Z,16.80
2023-02-22T12:33:31.345Z,16.60
2023-02-22T12:35:59.311Z,16.30
2023-02-22T12:38:33.776Z,15.90
2023-02-22T12:41:24.410Z,15.90
2023-02-22T12:43:58.564Z,15.70
2023-02-22T12:46:29.498Z,15.30
2023-02-22T12:48:59.353Z,15.30
2023-02-22T12:52:09.505Z,15.40
2023-02-22T12:54:49.990Z,15.30
2023-02-22T12:57:35.486Z,15.40
2023-02-22T13:00:06.769Z,15.50
2023-02-22T13:02:44.898Z,15.40
2023-02-22T13:05:17.771Z,15.30
2023-02-22T13:07:44.448Z,15.30
2023-02-22T13:10:30.906Z,15.30
2023-02-22T13:13:12.854Z,15.40
2023-02-22T13:15:45.945Z,15.50
2023-02-22T13:18:17.241Z,15.40
2023-02-22T13:20:58.781Z,15.30
2023-02-22T13:23:40.083Z,15.30
2023-02-22T13:26:26.891Z,15.10
2023-02-22T13:29:16.786Z,15.00
2023-02-22T13:31:43.460Z,15.30
2023-02-22T13:34:30.759Z,15.60
2023-02-22T13:36:58.147Z,16.20
2023-02-22T13:42:22.436Z,16.20
2023-02-22T13:44:55.822Z,16.50
2023-02-22T13:47:22.487Z,16.80
2023-02-22T13:49:52.213Z,16.70
2023-02-22T13:52:21.783Z,16.70
2023-02-22T13:54:54.851Z,16.60
2023-02-22T13:57:29.466Z,16.40
2023-02-22T14:00:14.439Z,16.30
2023-02-22T14:03:03.104Z,16.10
2023-02-22T14:05:46.919Z,16.60
2023-02-22T14:08:13.626Z,16.30
2023-02-22T14:10:43.375Z,16.20
2023-02-22T14:13:10.666Z,16.30
2023-02-22T14:15:57.243Z,16.50
2023-02-22T14:18:24.706Z,16.80
2023-02-22T14:21:11.626Z,16.60
2023-02-22T14:23:40.277Z,16.80
2023-02-22T14:26:12.440Z,16.90
2023-02-22T14:28:57.987Z,17.10
2023-02-22T14:31:36.616Z,17.10
2023-02-22T14:34:09.083Z,16.90
2023-02-22T14:36:41.798Z,16.80
2023-02-22T14:39:31.663Z,16.60
2023-02-22T14:42:04.355Z,16.50
2023-02-22T14:44:40.525Z,16.60
2023-02-22T14:47:08.425Z,16.40
2023-02-22T14:49:40.286Z,16.10
2023-02-22T14:52:15.375Z,15.90
2023-02-22T14:54:57.859Z,16.10
2023-02-22T14:57:48.389Z,16.00
2023-02-22T15:00:20.379Z,16.10
2023-02-22T15:02:48.787Z,16.20
2023-02-22T15:05:19.473Z,15.90
2023-02-22T15:07:56.585Z,15.70
2023-02-22T15:10:42.744Z,15.60
2023-02-22T15:15:38.934Z,15.60
2023-02-22T15:18:10.716Z,15.50
2023-02-22T15:20:38.385Z,15.60
2023-02-22T15:23:05.163Z,15.70
2023-02-22T15:25:32.075Z,15.60
2023-02-22T15:28:04.052Z,15.50
2023-02-22T15:30:32.922Z,15.40
2023-02-22T15:33:24.073Z,15.30
2023-02-22T15:35:55.097Z,15.20
2023-02-22T15:38:26.451Z,14.90
2023-02-22T15:41:00.157Z,15.00
2023-02-22T15:43:29.991Z,14.80
2023-02-22T15:45:57.265Z,14.80
2023-02-22T15:48:26.325Z,14.60
2023-02-22T15:51:10.602Z,14.50
2023-02-22T15:53:40.178Z,14.50
2023-02-22T15:56:09.206Z,14.30
2023-02-22T15:58:36.207Z,14.30
2023-02-22T16:01:04.449Z,14.20
2023-02-22T16:03:38.732Z,14.20
2023-02-22T16:06:09.408Z,14.20
2023-02-22T16:08:54.077Z,14.20
2023-02-22T16:11:29.956Z,14.10
2023-02-22T16:13:59.255Z,14.00
2023-02-22T16:16:28.140Z,14.00
2023-02-22T16:19:14.789Z,13.90
2023-02-22T16:21:54.980Z,13.90
2023-02-22T16:24:28.913Z,13.80
2023-02-22T16:27:04.495Z,13.80
2023-02-22T16:29:31.144Z,13.80
2023-02-22T16:31:57.866Z,13.80
2023-02-22T16:34:24.547Z,13.70
2023-02-22T16:36:51.638Z,13.70
2023-02-22T16:39:21.292Z,13.60
2023-02-22T16:41:48.067Z,13.60
2023-02-22T16:44:14.733Z,13.70
2023-02-22T16:46:41.985Z,13.60
2023-02-22T16:49:12.280Z,13.60
2023-02-22T16:51:50.664Z,13.50
2023-02-22T16:54:20.817Z,13.60
2023-02-22T16:56:47.423Z,13.50
2023-02-22T16:59:15.294Z,13.40
2023-02-22T17:01:43.938Z,13.40
2023-02-22T17:04:17.941Z,13.40
2023-02-22T17:06:44.600Z,13.40
2023-02-22T17:09:11.234Z,13.40
2023-02-22T17:11:38.187Z,13.30
2023-02-22T17:14:05.515Z,13.30
2023-02-22T17:16:33.676Z,13.20
2023-02-22T17:19:00.257Z,13.20
2023-02-22T17:21:26.816Z,13.20
2023-02-22T17:23:53.410Z,13.20
2023-02-22T17:26:20.079Z,13.20
2023-02-22T17:28:46.644Z,13.20
2023-02-22T17:31:21.654Z,13.10
2023-02-22T17:33:48.794Z,13.20
2023-02-22T17:36:15.981Z,13.20
2023-02-22T17:38:43.117Z,13.10
2023-02-22T17:41:12.759Z,13.10
2023-02-22T17:46:08.345Z,13.00
2023-02-22T17:48:35.333Z,13.10
2023-02-22T17:51:05.963Z,13.00
2023-02-22T17:53:32.759Z,13.00
2023-02-22T17:55:59.341Z,13.00
2023-02-22T17:58:30.743Z,13.00
2023-02-22T18:00:59.079Z,12.90
2023-02-22T18:03:26.452Z,12.90
2023-02-22T18:06:00.111Z,12.80
2023-02-22T18:08:27.628Z,12.80
2023-02-22T18:10:56.504Z,12.80
2023-02-22T18:13:26.463Z,12.80
2023-02-22T18:15:53.122Z,12.80
2023-02-22T18:18:19.836Z,12.70
2023-02-22T18:20:51.301Z,12.70
2023-02-22T18:23:22.100Z,12.60
2023-02-22T18:26:03.812Z,12.60
2023-02-22T18:28:36.372Z,12.60
2023-02-22T18:31:06.320Z,12.60
2023-02-22T18:33:32.904Z,12.60
2023-02-22T18:35:59.525Z,12.50
2023-02-22T18:38:26.480Z,12.40
2023-02-22T18:41:02.995Z,12.40
2023-02-22T18:43:31.694Z,12.30
2023-02-22T18:46:11.798Z,12.20
2023-02-22T18:48:39.111Z,12.20
2023-02-22T18:51:07.334Z,12.30
2023-02-22T18:53:34.170Z,12.30
2023-02-22T18:56:04.911Z,12.20
2023-02-22T18:58:32.912Z,12.20
2023-02-22T19:01:00.647Z,12.20
2023-02-22T19:03:27.851Z,12.20
2023-02-22T19:05:55.802Z,12.30
2023-02-22T19:08:22.512Z,12.20
2023-02-22T19:10:49.766Z,12.30
2023-02-22T19:13:16.822Z,12.20
2023-02-22T19:15:43.443Z,12.20
2023-02-22T19:18:10.040Z,12.20
2023-02-22T19:20:36.546Z,12.10
2023-02-22T19:23:03.138Z,12.10
2023-02-22T19:25:29.676Z,12.10
2023-02-22T19:27:56.848Z,12.10
2023-02-22T19:30:24.156Z,12.10
2023-02-22T19:32:51.229Z,12.10
2023-02-22T19:35:26.880Z,12.00
2023-02-22T19:37:56.524Z,12.00
2023-02-22T19:40:23.241Z,12.00
2023-02-22T19:42:51.317Z,12.10
2023-02-22T19:45:18.629Z,12.10
2023-02-22T19:47:46.341Z,12.00
2023-02-22T19:50:13.773Z,12.10
2023-02-22T19:52:40.404Z,12.10
2023-02-22T19:55:12.721Z,12.00
2023-02-22T19:57:40.503Z,12.00
2023-02-22T20:00:11.080Z,12.00
2023-02-22T20:02:39.446Z,12.00
2023-02-22T20:05:11.906Z,11.90
2023-02-22T20:07:38.842Z,12.00
2023-02-22T20:10:05.618Z,12.00
2023-02-22T20:12:32.220Z,12.00
2023-02-22T20:14:58.879Z,12.00
2023-02-22T20:17:26.053Z,12.00
2023-02-22T20:19:53.438Z,12.00
2023-02-22T20:22:20.860Z,12.00
2023-02-22T20:24:48.211Z,12.10
2023-02-22T20:27:15.295Z,12.00
2023-02-22T20:29:41.955Z,12.00
2023-02-22T20:32:11.493Z,12.00
2023-02-22T20:34:38.123Z,12.00
2023-02-22T20:37:04.883Z,12.00
2023-02-22T20:39:31.504Z,12.00
2023-02-22T20:42:00.459Z,12.00
2023-02-22T20:44:27.244Z,12.00
2023-02-22T20:46:54.191Z,12.00
2023-02-22T20:49:21.339Z,12.00
2023-02-22T20:51:48.298Z,11.90
2023-02-22T20:54:15.532Z,11.90
2023-02-22T20:56:45.350Z,11.90
2023-02-22T20:59:13.459Z,11.80
2023-02-22T21:01:42.632Z,11.70
2023-02-22T21:04:10.676Z,11.70
2023-02-22T21:06:40.699Z,11.60
2023-02-22T21:09:10.347Z,11.60
2023-02-22T21:11:37.213Z,11.60
2023-02-22T21:14:04.109Z,11.50
2023-02-22T21:16:32.719Z,11.40
2023-02-22T21:19:00.648Z,11.40
2023-02-22T21:21:27.796Z,11.30
2023-02-22T21:23:55.499Z,11.30
2023-02-22T21:26:23.770Z,11.20
2023-02-22T21:28:53.907Z,11.20
2023-02-22T21:31:22.845Z,11.10
2023-02-22T21:33:50.769Z,11.00
2023-02-22T21:36:18.070Z,10.90
2023-02-22T21:38:45.556Z,10.90
2023-02-22T21:41:16.158Z,10.80
2023-02-22T21:43:43.203Z,10.70
2023-02-22T21:46:13.190Z,10.60
2023-02-22T21:48:44.602Z,10.60
2023-02-22T21:51:14.384Z,10.50
2023-02-22T21:53:47.034Z,10.50
2023-02-22T21:56:15.226Z,10.50
2023-02-22T21:58:43.228Z,10.50
2023-02-22T22:01:10.238Z,10.50
2023-02-22T22:03:36.741Z,10.50
2023-02-22T22:06:09.783Z,10.40
2023-02-22T22:08:40.063Z,10.50
2023-02-22T22:11:09.184Z,10.40
2023-02-22T22:13:36.858Z,10.40
2023-02-22T22:16:08.009Z,10.40
2023-02-22T22:18:36.186Z,10.40
2023-02-22T22:21:10.643Z,10.40
2023-02-22T22:23:38.959Z,10.30
2023-02-22T22:26:16.317Z,10.40
2023-02-22T22:28:44.569Z,10.40
2023-02-22T22:31:11.293Z,10.30
2023-02-22T22:33:39.876Z,10.30
2023-02-22T22:36:06.601Z,10.30
2023-02-22T22:38:33.403Z,10.20
2023-02-22T22:41:01.203Z,10.20
2023-02-22T22:43:28.880Z,10.20
2023-02-22T22:45:57.781Z,10.10
2023-02-22T22:48:25.066Z,10.10
2023-02-22T22:50:59.324Z,10.10
2023-02-22T22:53:25.869Z,10.10
2023-02-22T22:55:52.904Z,10.10
2023-02-22T22:58:19.569Z,10.10
2023-02-22T23:00:46.236Z,10.00
2023-02-22T23:03:16.641Z,9.90
2023-02-22T23:05:43.258Z,9.90
2023-02-22T23:08:10.928Z,9.90
2023-02-22T23:10:40.431Z,9.90
2023-02-22T23:13:11.007Z,9.90
2023-02-22T23:15:44.464Z,9.90
2023-02-22T23:18:11.104Z,9.90
2023-02-22T23:20:38.898Z,9.90
2023-02-22T23:23:06.094Z,9.90
2023-02-22T23:25:33.227Z,9.90
2023-02-22T23:27:59.886Z,9.90
2023-02-22T23:30:26.791Z,9.90
2023-02-22T23:32:53.587Z,9.90
2023-02-22T23:35:20.057Z,9.90
2023-02-22T23:37:50.121Z,9.90
2023-02-22T23:40:16.862Z,9.90
2023-02-22T23:42:48.090Z,9.90
2023-02-22T23:45:22.577Z,9.90
2023-02-22T23:48:01.462Z,9.90
2023-02-22T23:50:29.205Z,9.80
2023-02-22T23:52:57.114Z,9.80
2023-02-22T23:55:24.757Z,9.80
2023-02-22T23:57:51.366Z,9.80
